createdAt,value
2022-12-15T00:00:55.097Z,8.05
2022-12-15T00:06:18.624Z,7.80
2022-12-15T00:11:38.837Z,9.52
2022-12-15T00:16:59.191Z,7.90
2022-12-15T00:22:20.959Z,8.38
2022-12-15T00:27:41.194Z,7.03
2022-12-15T00:33:01.385Z,8.13
2022-12-15T00:38:26.717Z,7.75
2022-12-15T00:43:30.408Z,8.68
2022-12-15T00:48:33.532Z,7.38
2022-12-15T00:53:55.251Z,8.23
2022-12-15T00:59:15.680Z,9.18
2022-12-15T01:04:36.011Z,5.97
2022-12-15T01:09:57.712Z,8.02
2022-12-15T01:15:17.928Z,9.40
2022-12-15T01:20:21.825Z,7.88
2022-12-15T01:25:27.510Z,6.55
2022-12-15T01:30:30.298Z,7.20
2022-12-15T01:35:33.073Z,6.95
2022-12-15T01:40:47.309Z,7.75
2022-12-15T01:45:59.559Z,9.13
2022-12-15T01:51:07.949Z,8.10
2022-12-15T01:56:12.813Z,9.02
2022-12-15T02:01:15.536Z,7.30
2022-12-15T02:06:21.554Z,7.15
2022-12-15T02:11:56.985Z,8.20
2022-12-15T02:17:09.629Z,10.18
2022-12-15T02:22:22.260Z,9.13
2022-12-15T02:27:37.774Z,7.75
2022-12-15T02:32:44.572Z,7.32
2022-12-15T02:37:49.874Z,9.27
2022-12-15T02:42:55.234Z,6.88
2022-12-15T02:48:07.646Z,6.18
2022-12-15T02:53:19.450Z,7.10
2022-12-15T02:58:26.652Z,8.48
2022-12-15T03:03:32.577Z,8.95
2022-12-15T03:08:35.591Z,8.68
2022-12-15T03:13:38.403Z,7.18
2022-12-15T03:18:42.413Z,7.40
2022-12-15T03:23:45.196Z,8.93
2022-12-15T03:28:47.938Z,6.45
2022-12-15T03:33:51.987Z,7.28
2022-12-15T03:38:54.690Z,7.25
2022-12-15T03:43:57.436Z,7.35
2022-12-15T03:49:01.504Z,8.77
2022-12-15T03:54:04.240Z,7.82
2022-12-15T03:59:07.069Z,7.70
2022-12-15T04:04:11.128Z,7.30
2022-12-15T04:09:13.847Z,7.03
2022-12-15T04:14:16.594Z,6.85
2022-12-15T04:19:52.831Z,8.23
2022-12-15T04:25:13.285Z,7.18
2022-12-15T04:30:33.566Z,8.52
2022-12-15T04:35:55.423Z,7.35
2022-12-15T04:41:15.426Z,6.82
2022-12-15T04:46:35.700Z,7.70
2022-12-15T04:51:57.383Z,7.85
2022-12-15T04:57:17.631Z,7.90
2022-12-15T05:02:38.070Z,7.30
2022-12-15T05:08:00.154Z,7.78
2022-12-15T05:13:23.782Z,7.95
2022-12-15T05:18:44.134Z,7.72
2022-12-15T05:24:05.842Z,7.65
2022-12-15T05:29:26.116Z,8.07
2022-12-15T05:34:30.560Z,8.00
2022-12-15T05:39:34.658Z,7.07
2022-12-15T05:44:37.435Z,7.78
2022-12-15T05:49:40.114Z,7.28
2022-12-15T05:54:44.159Z,7.93
2022-12-15T05:59:46.917Z,7.03
2022-12-15T06:04:49.703Z,6.28
2022-12-15T06:09:53.794Z,5.95
2022-12-15T06:14:56.513Z,7.05
2022-12-15T06:19:59.199Z,7.47
2022-12-15T06:25:03.187Z,7.85
2022-12-15T06:30:06.978Z,7.32
2022-12-15T06:35:09.791Z,7.93
2022-12-15T06:40:14.140Z,7.68
2022-12-15T06:45:16.892Z,7.93
2022-12-15T06:50:19.924Z,6.55
2022-12-15T06:55:23.932Z,8.45
2022-12-15T07:00:27.847Z,8.45
2022-12-15T07:05:30.559Z,7.00
2022-12-15T07:10:34.556Z,7.38
2022-12-15T07:15:37.520Z,7.20
2022-12-15T07:20:40.187Z,7.13
2022-12-15T07:25:44.186Z,7.70
2022-12-15T07:30:47.100Z,6.45
2022-12-15T07:35:54.406Z,10.40
2022-12-15T07:41:01.510Z,8.52
2022-12-15T07:46:04.405Z,8.07
2022-12-15T07:51:15.277Z,8.70
2022-12-15T07:56:21.780Z,8.43
2022-12-15T08:01:24.901Z,7.13
2022-12-15T08:06:27.685Z,8.65
2022-12-15T08:11:35.262Z,8.50
2022-12-15T08:16:38.121Z,10.35
2022-12-15T08:21:41.152Z,9.77
2022-12-15T08:26:50.390Z,8.55
2022-12-15T08:31:53.662Z,12.80
2022-12-15T08:36:56.602Z,14.75
2022-12-15T08:42:00.649Z,33.40
2022-12-15T08:47:03.290Z,41.67
2022-12-15T08:52:05.897Z,57.92
2022-12-15T08:57:09.915Z,67.45
2022-12-15T09:02:13.918Z,82.28
2022-12-15T09:07:16.667Z,94.78
2022-12-15T09:12:20.632Z,107.28
2022-12-15T09:17:23.311Z,107.45
2022-12-15T09:22:26.049Z,100.28
2022-12-15T09:27:30.470Z,106.32
2022-12-15T09:32:33.154Z,98.43
2022-12-15T09:37:35.854Z,104.22
2022-12-15T09:42:40.587Z,93.97
2022-12-15T09:47:46.057Z,104.82
2022-12-15T09:52:51.627Z,101.40
2022-12-15T09:57:56.995Z,109.20
2022-12-15T10:03:24.451Z,91.78
2022-12-15T10:08:31.139Z,100.63
2022-12-15T10:13:40.954Z,100.53
2022-12-15T10:18:57.588Z,89.75
2022-12-15T10:24:12.197Z,91.65
2022-12-15T10:29:25.855Z,83.68
2022-12-15T10:34:30.143Z,82.93
2022-12-15T10:39:40.407Z,85.82
2022-12-15T10:44:45.564Z,83.90
2022-12-15T10:49:54.221Z,80.38
2022-12-15T10:54:57.493Z,75.93
2022-12-15T11:00:28.865Z,66.95
2022-12-15T11:05:32.374Z,72.40
2022-12-15T11:10:48.939Z,67.35
2022-12-15T11:15:54.986Z,68.95
2022-12-15T11:21:02.754Z,58.40
2022-12-15T11:26:11.666Z,65.15
2022-12-15T11:31:20.051Z,58.45
2022-12-15T11:36:37.854Z,55.63
2022-12-15T11:41:45.641Z,56.13
2022-12-15T11:46:56.799Z,54.80
2022-12-15T11:52:03.718Z,46.78
2022-12-15T11:57:22.525Z,48.58
2022-12-15T12:02:38.566Z,47.05
2022-12-15T12:07:45.052Z,50.65
2022-12-15T12:12:53.881Z,48.90
2022-12-15T12:18:02.821Z,43.92
2022-12-15T12:23:07.673Z,44.08
2022-12-15T12:28:17.716Z,41.53
2022-12-15T12:33:29.565Z,39.20
2022-12-15T12:38:38.978Z,37.80
2022-12-15T12:43:44.275Z,36.47
2022-12-15T12:48:56.729Z,35.22
2022-12-15T12:54:00.596Z,34.42
2022-12-15T12:59:08.682Z,32.72
2022-12-15T13:04:14.785Z,33.33
2022-12-15T13:09:24.655Z,31.17
2022-12-15T13:14:32.293Z,29.25
2022-12-15T13:20:12.558Z,34.78
2022-12-15T13:25:48.531Z,31.50
2022-12-15T13:31:21.299Z,29.63
2022-12-15T13:42:45.612Z,27.95
2022-12-15T13:47:56.515Z,22.92
2022-12-15T13:53:18.771Z,21.90
2022-12-15T13:58:25.452Z,27.20
2022-12-15T14:03:28.387Z,24.23
2022-12-15T14:08:32.042Z,23.88
2022-12-15T14:13:37.412Z,20.73
2022-12-15T14:18:40.806Z,22.25
2022-12-15T14:23:58.003Z,22.10
2022-12-15T14:29:11.843Z,20.13
2022-12-15T14:34:21.177Z,19.55
2022-12-15T14:39:27.066Z,19.17
2022-12-15T14:44:38.159Z,19.80
2022-12-15T14:49:43.754Z,17.52
2022-12-15T14:54:53.053Z,16.83
2022-12-15T15:00:01.630Z,20.60
2022-12-15T15:03:07.444Z,27.20
2022-12-15T15:05:07.666Z,19.48
2022-12-15T15:10:25.176Z,17.33
2022-12-15T15:15:29.649Z,17.88
2022-12-15T15:20:34.503Z,15.07
2022-12-15T15:25:40.732Z,17.85
2022-12-15T15:30:48.595Z,16.88
2022-12-15T15:35:53.549Z,15.30
2022-12-15T15:40:57.512Z,13.15
2022-12-15T15:46:02.754Z,16.70
2022-12-15T15:51:06.755Z,15.45
2022-12-15T15:56:12.752Z,13.27
2022-12-15T16:01:16.821Z,13.38
2022-12-15T16:06:21.120Z,14.18
2022-12-15T16:11:24.206Z,14.98
2022-12-15T16:16:31.648Z,17.52
2022-12-15T16:22:33.583Z,14.15
2022-12-15T16:27:36.288Z,14.93
2022-12-15T16:32:40.510Z,14.60
2022-12-15T16:37:46.581Z,16.13
2022-12-15T16:42:56.162Z,13.57
2022-12-15T16:48:00.323Z,14.52
2022-12-15T16:53:04.265Z,14.05
2022-12-15T16:58:07.430Z,13.27
2022-12-15T17:03:13.748Z,13.20
2022-12-15T17:08:20.033Z,12.85
2022-12-15T17:13:32.220Z,12.98
2022-12-15T17:18:42.795Z,13.18
2022-12-15T17:23:48.932Z,13.27
2022-12-15T17:28:52.339Z,10.90
2022-12-15T17:33:56.329Z,11.73
2022-12-15T17:39:00.301Z,10.48
2022-12-15T17:44:31.852Z,11.85
2022-12-15T17:49:33.016Z,10.60
2022-12-15T17:54:37.574Z,11.60
2022-12-15T17:59:40.375Z,12.02
2022-12-15T18:04:44.752Z,10.63
2022-12-15T18:09:47.987Z,9.07
2022-12-15T18:14:50.833Z,16.30
2022-12-15T18:19:54.906Z,10.77
2022-12-15T18:24:57.626Z,8.95
2022-12-15T18:30:00.435Z,12.05
2022-12-15T18:35:13.005Z,10.70
2022-12-15T18:40:16.946Z,12.35
2022-12-15T18:45:22.275Z,40.13
2022-12-15T18:50:27.083Z,110.70
2022-12-15T18:55:31.589Z,102.15
2022-12-15T19:00:34.902Z,102.78
2022-12-15T19:05:39.869Z,104.03
2022-12-15T19:10:50.049Z,116.25
2022-12-15T19:15:53.311Z,100.97
2022-12-15T19:21:14.841Z,102.85
2022-12-15T19:26:17.517Z,109.80
2022-12-15T19:31:20.327Z,89.78
2022-12-15T19:36:25.056Z,102.55
2022-12-15T19:41:27.879Z,93.13
2022-12-15T19:46:30.568Z,104.32
2022-12-15T19:51:34.759Z,102.78
2022-12-15T19:56:37.453Z,96.72
2022-12-15T20:01:40.350Z,94.10
2022-12-15T20:06:44.916Z,87.93
2022-12-15T20:11:47.945Z,97.22
2022-12-15T20:16:51.235Z,92.05
2022-12-15T20:21:55.375Z,86.53
2022-12-15T20:26:58.071Z,82.82
2022-12-15T20:32:01.319Z,89.03
2022-12-15T20:37:10.819Z,77.55
2022-12-15T20:42:15.137Z,76.85
2022-12-15T20:47:21.272Z,80.20
2022-12-15T20:52:27.034Z,75.93
2022-12-15T20:57:29.705Z,76.95
2022-12-15T21:02:32.582Z,74.65
2022-12-15T21:07:36.694Z,71.13
2022-12-15T21:12:39.416Z,62.13
2022-12-15T21:17:42.737Z,67.43
2022-12-15T21:22:47.661Z,70.55
2022-12-15T21:27:50.534Z,61.35
2022-12-15T21:32:53.265Z,64.00
2022-12-15T21:37:57.445Z,64.35
2022-12-15T21:43:00.243Z,65.45
2022-12-15T21:48:20.576Z,57.20
2022-12-15T21:53:25.012Z,59.90
2022-12-15T21:58:28.014Z,56.08
2022-12-15T22:03:30.889Z,55.40
2022-12-15T22:08:35.254Z,60.15
2022-12-15T22:13:38.470Z,51.53
2022-12-15T22:18:41.254Z,56.10
2022-12-15T22:23:46.409Z,52.47
2022-12-15T22:28:49.282Z,55.42
2022-12-15T22:33:53.128Z,52.45
2022-12-15T22:39:02.975Z,56.78
2022-12-15T22:44:15.409Z,49.58
2022-12-15T22:49:20.012Z,52.58
2022-12-15T22:54:26.514Z,46.00
2022-12-15T22:59:32.707Z,48.08
2022-12-15T23:04:35.562Z,42.60
2022-12-15T23:09:39.584Z,43.92
2022-12-15T23:15:01.921Z,40.85
2022-12-15T23:20:05.189Z,44.03
2022-12-15T23:25:10.408Z,44.88
2022-12-15T23:30:13.911Z,44.75
2022-12-15T23:35:16.972Z,42.53
2022-12-15T23:40:22.149Z,42.60
2022-12-15T23:45:25.216Z,38.60
2022-12-15T23:50:27.924Z,36.70
2022-12-15T23:55:32.162Z,40.55
